sensor_id;sensor_type;location;lat;lon;timestamp;temperature;humidity
66140;DHT22;52945;51.908;8.364;2023-06-04T00:01:40;17.40;38.20
66140;DHT22;52945;51.908;8.364;2023-06-04T00:04:41;17.40;38.30
66140;DHT22;52945;51.908;8.364;2023-06-04T00:07:41;17.30;38.20
66140;DHT22;52945;51.908;8.364;2023-06-04T00:10:42;17.30;38.20
66140;DHT22;52945;51.908;8.364;2023-06-04T00:13:42;17.20;38.00
66140;DHT22;52945;51.908;8.364;2023-06-04T00:16:44;17.20;38.00
66140;DHT22;52945;51.908;8.364;2023-06-04T00:19:45;17.20;38.00
66140;DHT22;52945;51.908;8.364;2023-06-04T00:22:45;17.20;37.60
66140;DHT22;52945;51.908;8.364;2023-06-04T00:25:46;17.10;37.80
66140;DHT22;52945;51.908;8.364;2023-06-04T00:28:47;17.10;38.00
66140;DHT22;52945;51.908;8.364;2023-06-04T00:31:47;17.10;38.10
66140;DHT22;52945;51.908;8.364;2023-06-04T00:34:52;17.00;38.20
66140;DHT22;52945;51.908;8.364;2023-06-04T00:37:53;17.00;38.20
66140;DHT22;52945;51.908;8.364;2023-06-04T00:40:53;16.90;38.50
66140;DHT22;52945;51.908;8.364;2023-06-04T00:43:54;16.80;38.40
66140;DHT22;52945;51.908;8.364;2023-06-04T00:46:58;16.80;38.50
66140;DHT22;52945;51.908;8.364;2023-06-04T00:49:59;16.80;38.60
66140;DHT22;52945;51.908;8.364;2023-06-04T00:53:00;16.70;38.20
66140;DHT22;52945;51.908;8.364;2023-06-04T00:56:00;16.70;38.30
66140;DHT22;52945;51.908;8.364;2023-06-04T00:59:01;16.60;38.30
66140;DHT22;52945;51.908;8.364;2023-06-04T01:02:08;16.60;38.50
66140;DHT22;52945;51.908;8.364;2023-06-04T01:08:23;16.50;38.90
66140;DHT22;52945;51.908;8.364;2023-06-04T01:11:35;16.40;39.40
66140;DHT22;52945;51.908;8.364;2023-06-04T01:14:35;16.40;39.40
66140;DHT22;52945;51.908;8.364;2023-06-04T01:17:49;16.30;39.70
66140;DHT22;52945;51.908;8.364;2023-06-04T01:20:52;16.40;39.90
66140;DHT22;52945;51.908;8.364;2023-06-04T01:23:53;16.30;39.90
66140;DHT22;52945;51.908;8.364;2023-06-04T01:27:00;16.40;40.10
66140;DHT22;52945;51.908;8.364;2023-06-04T01:30:02;16.30;40.30
66140;DHT22;52945;51.908;8.364;2023-06-04T01:33:04;16.30;40.40
66140;DHT22;52945;51.908;8.364;2023-06-04T01:36:04;16.30;40.50
66140;DHT22;52945;51.908;8.364;2023-06-04T01:39:06;16.30;40.40
66140;DHT22;52945;51.908;8.364;2023-06-04T01:42:07;16.20;40.80
66140;DHT22;52945;51.908;8.364;2023-06-04T01:45:08;16.20;41.10
66140;DHT22;52945;51.908;8.364;2023-06-04T01:48:09;16.20;41.10
66140;DHT22;52945;51.908;8.364;2023-06-04T01:51:09;16.20;41.20
66140;DHT22;52945;51.908;8.364;2023-06-04T01:54:10;16.20;41.10
66140;DHT22;52945;51.908;8.364;2023-06-04T01:57:11;16.10;41.40
66140;DHT22;52945;51.908;8.364;2023-06-04T02:00:12;16.10;41.50
66140;DHT22;52945;51.908;8.364;2023-06-04T02:03:13;16.10;41.60
66140;DHT22;52945;51.908;8.364;2023-06-04T02:06:15;16.00;42.00
66140;DHT22;52945;51.908;8.364;2023-06-04T02:09:17;15.90;42.10
66140;DHT22;52945;51.908;8.364;2023-06-04T02:12:18;15.90;42.50
66140;DHT22;52945;51.908;8.364;2023-06-04T02:15:19;15.80;42.60
66140;DHT22;52945;51.908;8.364;2023-06-04T02:18:20;15.70;42.70
66140;DHT22;52945;51.908;8.364;2023-06-04T02:21:25;15.70;43.00
66140;DHT22;52945;51.908;8.364;2023-06-04T02:24:28;15.70;43.20
66140;DHT22;52945;51.908;8.364;2023-06-04T02:27:28;15.70;43.30
66140;DHT22;52945;51.908;8.364;2023-06-04T02:30:29;15.60;43.30
66140;DHT22;52945;51.908;8.364;2023-06-04T02:33:30;15.60;43.30
66140;DHT22;52945;51.908;8.364;2023-06-04T02:36:30;15.60;43.30
66140;DHT22;52945;51.908;8.364;2023-06-04T02:39:31;15.60;43.40
66140;DHT22;52945;51.908;8.364;2023-06-04T02:42:31;15.60;43.50
66140;DHT22;52945;51.908;8.364;2023-06-04T02:45:32;15.50;43.60
66140;DHT22;52945;51.908;8.364;2023-06-04T02:48:33;15.40;43.80
66140;DHT22;52945;51.908;8.364;2023-06-04T02:51:33;15.40;44.00
66140;DHT22;52945;51.908;8.364;2023-06-04T02:54:34;15.40;44.40
66140;DHT22;52945;51.908;8.364;2023-06-04T02:57:35;15.30;44.50
66140;DHT22;52945;51.908;8.364;2023-06-04T03:00:35;15.20;44.60
66140;DHT22;52945;51.908;8.364;2023-06-04T03:03:36;15.20;44.90
66140;DHT22;52945;51.908;8.364;2023-06-04T03:06:37;15.20;44.80
66140;DHT22;52945;51.908;8.364;2023-06-04T03:09:41;15.10;44.90
66140;DHT22;52945;51.908;8.364;2023-06-04T03:12:41;15.10;45.30
66140;DHT22;52945;51.908;8.364;2023-06-04T03:15:42;15.00;45.40
66140;DHT22;52945;51.908;8.364;2023-06-04T03:18:43;15.00;45.60
66140;DHT22;52945;51.908;8.364;2023-06-04T03:21:44;14.90;45.80
66140;DHT22;52945;51.908;8.364;2023-06-04T03:24:45;14.90;45.90
66140;DHT22;52945;51.908;8.364;2023-06-04T03:27:45;14.90;46.30
66140;DHT22;52945;51.908;8.364;2023-06-04T03:30:46;14.80;46.30
66140;DHT22;52945;51.908;8.364;2023-06-04T03:33:47;14.80;46.50
66140;DHT22;52945;51.908;8.364;2023-06-04T03:36:47;14.80;46.90
66140;DHT22;52945;51.908;8.364;2023-06-04T03:39:48;14.70;47.40
66140;DHT22;52945;51.908;8.364;2023-06-04T03:42:48;14.70;47.60
66140;DHT22;52945;51.908;8.364;2023-06-04T03:45:49;14.70;47.60
66140;DHT22;52945;51.908;8.364;2023-06-04T03:48:49;14.60;47.70
66140;DHT22;52945;51.908;8.364;2023-06-04T03:51:50;14.60;47.90
66140;DHT22;52945;51.908;8.364;2023-06-04T03:54:51;14.60;47.90
66140;DHT22;52945;51.908;8.364;2023-06-04T03:57:51;14.60;47.90
66140;DHT22;52945;51.908;8.364;2023-06-04T04:00:52;14.60;48.10
66140;DHT22;52945;51.908;8.364;2023-06-04T04:03:53;14.60;48.20
66140;DHT22;52945;51.908;8.364;2023-06-04T04:06:53;14.60;48.30
66140;DHT22;52945;51.908;8.364;2023-06-04T04:09:54;14.60;48.50
66140;DHT22;52945;51.908;8.364;2023-06-04T04:12:54;14.60;48.50
66140;DHT22;52945;51.908;8.364;2023-06-04T04:15:57;14.60;48.50
66140;DHT22;52945;51.908;8.364;2023-06-04T04:18:58;14.60;48.60
66140;DHT22;52945;51.908;8.364;2023-06-04T04:21:59;14.60;48.80
66140;DHT22;52945;51.908;8.364;2023-06-04T04:25:00;14.60;49.10
66140;DHT22;52945;51.908;8.364;2023-06-04T04:28:02;14.60;49.30
66140;DHT22;52945;51.908;8.364;2023-06-04T04:31:02;14.60;49.40
66140;DHT22;52945;51.908;8.364;2023-06-04T04:34:03;14.60;49.10
66140;DHT22;52945;51.908;8.364;2023-06-04T04:37:08;14.70;49.10
66140;DHT22;52945;51.908;8.364;2023-06-04T04:40:10;14.60;49.10
66140;DHT22;52945;51.908;8.364;2023-06-04T04:43:12;14.70;49.10
66140;DHT22;52945;51.908;8.364;2023-06-04T04:46:13;14.70;49.10
66140;DHT22;52945;51.908;8.364;2023-06-04T04:49:14;14.70;49.10
66140;DHT22;52945;51.908;8.364;2023-06-04T04:52:15;14.70;49.10
66140;DHT22;52945;51.908;8.364;2023-06-04T04:55:15;14.80;49.20
66140;DHT22;52945;51.908;8.364;2023-06-04T04:58:17;14.80;49.30
66140;DHT22;52945;51.908;8.364;2023-06-04T05:01:18;14.80;49.50
66140;DHT22;52945;51.908;8.364;2023-06-04T05:04:19;14.90;49.50
66140;DHT22;52945;51.908;8.364;2023-06-04T05:07:19;15.00;49.00
66140;DHT22;52945;51.908;8.364;2023-06-04T05:10:21;15.00;48.60
66140;DHT22;52945;51.908;8.364;2023-06-04T05:13:22;15.10;48.80
66140;DHT22;52945;51.908;8.364;2023-06-04T05:16:23;15.10;48.90
66140;DHT22;52945;51.908;8.364;2023-06-04T05:19:25;15.20;48.00
66140;DHT22;52945;51.908;8.364;2023-06-04T05:22:26;15.20;47.00
66140;DHT22;52945;51.908;8.364;2023-06-04T05:25:29;15.10;46.50
66140;DHT22;52945;51.908;8.364;2023-06-04T05:28:30;15.20;46.50
66140;DHT22;52945;51.908;8.364;2023-06-04T05:31:33;15.30;46.60
66140;DHT22;52945;51.908;8.364;2023-06-04T05:34:35;15.30;46.10
66140;DHT22;52945;51.908;8.364;2023-06-04T05:37:37;15.30;46.20
66140;DHT22;52945;51.908;8.364;2023-06-04T05:40:40;15.40;46.10
66140;DHT22;52945;51.908;8.364;2023-06-04T05:43:41;15.50;45.70
66140;DHT22;52945;51.908;8.364;2023-06-04T05:46:44;15.50;45.20
66140;DHT22;52945;51.908;8.364;2023-06-04T05:49:45;15.60;45.30
66140;DHT22;52945;51.908;8.364;2023-06-04T05:52:46;15.70;45.30
66140;DHT22;52945;51.908;8.364;2023-06-04T05:55:46;15.60;44.80
66140;DHT22;52945;51.908;8.364;2023-06-04T05:58:51;15.70;45.20
66140;DHT22;52945;51.908;8.364;2023-06-04T06:01:52;15.80;44.70
66140;DHT22;52945;51.908;8.364;2023-06-04T06:04:54;15.80;44.20
66140;DHT22;52945;51.908;8.364;2023-06-04T06:07:55;15.90;44.10
66140;DHT22;52945;51.908;8.364;2023-06-04T06:10:56;16.00;43.80
66140;DHT22;52945;51.908;8.364;2023-06-04T06:13:58;16.10;44.30
66140;DHT22;52945;51.908;8.364;2023-06-04T06:16:59;16.10;44.50
66140;DHT22;52945;51.908;8.364;2023-06-04T06:20:00;16.10;44.30
66140;DHT22;52945;51.908;8.364;2023-06-04T06:23:08;16.20;44.20
66140;DHT22;52945;51.908;8.364;2023-06-04T06:26:09;16.30;44.40
66140;DHT22;52945;51.908;8.364;2023-06-04T06:29:09;16.40;44.40
66140;DHT22;52945;51.908;8.364;2023-06-04T06:32:10;16.40;43.80
66140;DHT22;52945;51.908;8.364;2023-06-04T06:35:11;16.50;43.30
66140;DHT22;52945;51.908;8.364;2023-06-04T06:38:13;16.60;42.80
66140;DHT22;52945;51.908;8.364;2023-06-04T06:41:13;16.60;42.70
66140;DHT22;52945;51.908;8.364;2023-06-04T06:44:14;16.70;42.80
66140;DHT22;52945;51.908;8.364;2023-06-04T06:47:15;16.80;43.00
66140;DHT22;52945;51.908;8.364;2023-06-04T06:50:15;16.90;42.40
66140;DHT22;52945;51.908;8.364;2023-06-04T06:53:16;17.00;42.40
66140;DHT22;52945;51.908;8.364;2023-06-04T06:56:17;17.10;42.30
66140;DHT22;52945;51.908;8.364;2023-06-04T06:59:18;17.10;42.50
66140;DHT22;52945;51.908;8.364;2023-06-04T07:02:19;17.20;42.50
66140;DHT22;52945;51.908;8.364;2023-06-04T07:05:20;17.30;42.30
66140;DHT22;52945;51.908;8.364;2023-06-04T07:08:21;17.40;42.10
66140;DHT22;52945;51.908;8.364;2023-06-04T07:11:21;17.50;41.70
66140;DHT22;52945;51.908;8.364;2023-06-04T07:14:22;17.60;41.10
66140;DHT22;52945;51.908;8.364;2023-06-04T07:17:22;17.70;40.90
66140;DHT22;52945;51.908;8.364;2023-06-04T07:20:23;17.70;41.10
66140;DHT22;52945;51.908;8.364;2023-06-04T07:23:24;17.90;41.10
66140;DHT22;52945;51.908;8.364;2023-06-04T07:26:24;17.90;40.20
66140;DHT22;52945;51.908;8.364;2023-06-04T07:29:26;18.10;40.60
66140;DHT22;52945;51.908;8.364;2023-06-04T07:32:27;18.10;40.90
66140;DHT22;52945;51.908;8.364;2023-06-04T07:35:28;18.30;40.40
66140;DHT22;52945;51.908;8.364;2023-06-04T07:38:29;18.40;40.60
66140;DHT22;52945;51.908;8.364;2023-06-04T07:41:29;18.40;39.40
66140;DHT22;52945;51.908;8.364;2023-06-04T07:44:30;18.60;39.90
66140;DHT22;52945;51.908;8.364;2023-06-04T07:47:30;18.70;39.00
66140;DHT22;52945;51.908;8.364;2023-06-04T07:50:31;18.80;39.70
66140;DHT22;52945;51.908;8.364;2023-06-04T07:53:33;18.90;39.70
66140;DHT22;52945;51.908;8.364;2023-06-04T07:56:33;19.00;38.10
66140;DHT22;52945;51.908;8.364;2023-06-04T07:59:34;19.10;38.30
66140;DHT22;52945;51.908;8.364;2023-06-04T08:02:34;19.20;35.70
66140;DHT22;52945;51.908;8.364;2023-06-04T08:05:35;19.30;35.20
66140;DHT22;52945;51.908;8.364;2023-06-04T08:08:35;19.40;35.50
66140;DHT22;52945;51.908;8.364;2023-06-04T08:11:36;19.50;36.00
66140;DHT22;52945;51.908;8.364;2023-06-04T08:14:37;19.60;35.50
66140;DHT22;52945;51.908;8.364;2023-06-04T08:17:39;19.70;34.40
66140;DHT22;52945;51.908;8.364;2023-06-04T08:20:39;19.80;34.40
66140;DHT22;52945;51.908;8.364;2023-06-04T08:23:40;20.00;33.90
66140;DHT22;52945;51.908;8.364;2023-06-04T08:26:40;20.10;33.70
66140;DHT22;52945;51.908;8.364;2023-06-04T08:29:42;20.20;34.10
66140;DHT22;52945;51.908;8.364;2023-06-04T08:32:42;20.20;34.00
66140;DHT22;52945;51.908;8.364;2023-06-04T08:35:43;20.40;33.80
66140;DHT22;52945;51.908;8.364;2023-06-04T08:38:43;20.40;33.70
66140;DHT22;52945;51.908;8.364;2023-06-04T08:41:54;20.50;32.90
66140;DHT22;52945;51.908;8.364;2023-06-04T08:44:57;20.70;32.50
66140;DHT22;52945;51.908;8.364;2023-06-04T08:47:58;20.70;32.70
66140;DHT22;52945;51.908;8.364;2023-06-04T08:51:02;20.90;32.40
66140;DHT22;52945;51.908;8.364;2023-06-04T08:54:06;21.00;32.40
66140;DHT22;52945;51.908;8.364;2023-06-04T08:57:10;21.10;31.10
66140;DHT22;52945;51.908;8.364;2023-06-04T09:00:11;21.20;32.20
66140;DHT22;52945;51.908;8.364;2023-06-04T09:03:15;21.30;30.50
66140;DHT22;52945;51.908;8.364;2023-06-04T09:06:16;21.50;31.30
66140;DHT22;52945;51.908;8.364;2023-06-04T09:09:17;21.70;30.60
66140;DHT22;52945;51.908;8.364;2023-06-04T09:12:24;21.80;30.90
66140;DHT22;52945;51.908;8.364;2023-06-04T09:15:26;22.20;30.00
66140;DHT22;52945;51.908;8.364;2023-06-04T09:18:28;22.50;29.40
66140;DHT22;52945;51.908;8.364;2023-06-04T09:21:29;22.80;28.70
66140;DHT22;52945;51.908;8.364;2023-06-04T09:24:41;23.20;28.20
66140;DHT22;52945;51.908;8.364;2023-06-04T09:27:41;23.50;28.50
66140;DHT22;52945;51.908;8.364;2023-06-04T09:30:51;23.60;28.50
66140;DHT22;52945;51.908;8.364;2023-06-04T09:33:52;23.90;28.80
66140;DHT22;52945;51.908;8.364;2023-06-04T09:36:53;24.00;27.50
66140;DHT22;52945;51.908;8.364;2023-06-04T09:39:55;24.10;28.60
66140;DHT22;52945;51.908;8.364;2023-06-04T09:42:56;24.20;27.60
66140;DHT22;52945;51.908;8.364;2023-06-04T09:46:07;24.60;27.20
66140;DHT22;52945;51.908;8.364;2023-06-04T09:49:07;24.60;26.90
66140;DHT22;52945;51.908;8.364;2023-06-04T09:52:08;24.70;26.80
66140;DHT22;52945;51.908;8.364;2023-06-04T09:55:17;24.90;26.40
66140;DHT22;52945;51.908;8.364;2023-06-04T09:58:25;24.80;26.40
66140;DHT22;52945;51.908;8.364;2023-06-04T10:01:27;25.00;26.10
66140;DHT22;52945;51.908;8.364;2023-06-04T10:04:28;24.60;26.20
66140;DHT22;52945;51.908;8.364;2023-06-04T10:07:30;24.70;26.90
66140;DHT22;52945;51.908;8.364;2023-06-04T10:10:34;25.00;26.70
66140;DHT22;52945;51.908;8.364;2023-06-04T10:13:44;25.00;27.00
66140;DHT22;52945;51.908;8.364;2023-06-04T10:16:46;25.20;26.80
66140;DHT22;52945;51.908;8.364;2023-06-04T10:19:49;25.50;26.30
66140;DHT22;52945;51.908;8.364;2023-06-04T10:22:52;25.80;25.70
66140;DHT22;52945;51.908;8.364;2023-06-04T10:25:53;25.80;25.20
66140;DHT22;52945;51.908;8.364;2023-06-04T10:28:56;25.80;25.70
66140;DHT22;52945;51.908;8.364;2023-06-04T10:31:57;26.00;26.30
66140;DHT22;52945;51.908;8.364;2023-06-04T10:34:58;26.30;25.10
66140;DHT22;52945;51.908;8.364;2023-06-04T10:38:08;26.60;24.00
66140;DHT22;52945;51.908;8.364;2023-06-04T10:41:16;26.80;24.10
66140;DHT22;52945;51.908;8.364;2023-06-04T10:44:18;26.70;24.30
66140;DHT22;52945;51.908;8.364;2023-06-04T10:47:24;26.80;24.30
66140;DHT22;52945;51.908;8.364;2023-06-04T10:50:25;27.00;24.00
66140;DHT22;52945;51.908;8.364;2023-06-04T10:53:36;27.20;23.80
66140;DHT22;52945;51.908;8.364;2023-06-04T10:56:37;27.30;23.40
66140;DHT22;52945;51.908;8.364;2023-06-04T10:59:38;27.60;22.90
66140;DHT22;52945;51.908;8.364;2023-06-04T11:02:53;27.80;22.70
66140;DHT22;52945;51.908;8.364;2023-06-04T11:05:54;27.90;23.50
66140;DHT22;52945;51.908;8.364;2023-06-04T11:09:05;28.00;23.20
66140;DHT22;52945;51.908;8.364;2023-06-04T11:12:06;28.10;23.10
66140;DHT22;52945;51.908;8.364;2023-06-04T11:15:09;28.10;23.20
66140;DHT22;52945;51.908;8.364;2023-06-04T11:18:19;28.20;22.30
66140;DHT22;52945;51.908;8.364;2023-06-04T11:21:20;28.20;21.60
66140;DHT22;52945;51.908;8.364;2023-06-04T11:24:21;28.20;22.20
66140;DHT22;52945;51.908;8.364;2023-06-04T11:27:23;28.40;22.20
66140;DHT22;52945;51.908;8.364;2023-06-04T11:30:24;28.40;22.20
66140;DHT22;52945;51.908;8.364;2023-06-04T11:33:24;28.00;22.70
66140;DHT22;52945;51.908;8.364;2023-06-04T11:36:29;27.70;23.60
66140;DHT22;52945;51.908;8.364;2023-06-04T11:39:35;27.80;24.00
66140;DHT22;52945;51.908;8.364;2023-06-04T11:42:40;27.90;24.20
66140;DHT22;52945;51.908;8.364;2023-06-04T11:45:43;28.20;22.90
66140;DHT22;52945;51.908;8.364;2023-06-04T11:48:45;28.30;22.10
66140;DHT22;52945;51.908;8.364;2023-06-04T11:51:49;28.30;22.50
66140;DHT22;52945;51.908;8.364;2023-06-04T11:54:50;28.30;21.70
66140;DHT22;52945;51.908;8.364;2023-06-04T11:57:51;28.50;21.30
66140;DHT22;52945;51.908;8.364;2023-06-04T12:00:52;28.60;21.70
66140;DHT22;52945;51.908;8.364;2023-06-04T12:03:53;28.70;21.30
66140;DHT22;52945;51.908;8.364;2023-06-04T12:06:55;28.60;21.30
66140;DHT22;52945;51.908;8.364;2023-06-04T12:10:06;28.60;20.90
66140;DHT22;52945;51.908;8.364;2023-06-04T12:13:09;28.50;20.90
66140;DHT22;52945;51.908;8.364;2023-06-04T12:16:14;28.30;21.70
66140;DHT22;52945;51.908;8.364;2023-06-04T12:19:14;28.50;22.00
66140;DHT22;52945;51.908;8.364;2023-06-04T12:22:15;28.60;22.10
66140;DHT22;52945;51.908;8.364;2023-06-04T12:25:26;28.70;21.80
66140;DHT22;52945;51.908;8.364;2023-06-04T12:28:27;28.70;22.30
66140;DHT22;52945;51.908;8.364;2023-06-04T12:31:28;28.70;22.20
66140;DHT22;52945;51.908;8.364;2023-06-04T12:34:32;28.60;22.50
66140;DHT22;52945;51.908;8.364;2023-06-04T12:37:32;28.70;22.30
66140;DHT22;52945;51.908;8.364;2023-06-04T12:40:33;28.70;22.20
66140;DHT22;52945;51.908;8.364;2023-06-04T12:43:34;28.60;22.20
66140;DHT22;52945;51.908;8.364;2023-06-04T12:46:34;28.60;21.80
66140;DHT22;52945;51.908;8.364;2023-06-04T12:49:36;28.40;21.80
66140;DHT22;52945;51.908;8.364;2023-06-04T12:52:37;28.60;21.30
66140;DHT22;52945;51.908;8.364;2023-06-04T12:55:38;28.60;21.40
66140;DHT22;52945;51.908;8.364;2023-06-04T12:58:38;28.50;21.10
66140;DHT22;52945;51.908;8.364;2023-06-04T13:01:39;28.70;21.70
66140;DHT22;52945;51.908;8.364;2023-06-04T13:04:41;28.80;22.20
66140;DHT22;52945;51.908;8.364;2023-06-04T13:07:43;29.00;22.00
66140;DHT22;52945;51.908;8.364;2023-06-04T13:10:43;29.20;22.00
66140;DHT22;52945;51.908;8.364;2023-06-04T13:13:44;29.30;21.90
66140;DHT22;52945;51.908;8.364;2023-06-04T13:16:45;29.40;20.80
66140;DHT22;52945;51.908;8.364;2023-06-04T13:19:49;29.50;20.70
66140;DHT22;52945;51.908;8.364;2023-06-04T13:22:50;29.60;21.10
66140;DHT22;52945;51.908;8.364;2023-06-04T13:25:51;29.70;21.60
66140;DHT22;52945;51.908;8.364;2023-06-04T13:28:51;29.80;21.50
66140;DHT22;52945;51.908;8.364;2023-06-04T13:31:52;29.90;21.80
66140;DHT22;52945;51.908;8.364;2023-06-04T13:34:56;29.70;21.20
66140;DHT22;52945;51.908;8.364;2023-06-04T13:37:57;29.20;21.30
66140;DHT22;52945;51.908;8.364;2023-06-04T13:40:57;29.20;21.60
66140;DHT22;52945;51.908;8.364;2023-06-04T13:43:58;29.30;21.50
66140;DHT22;52945;51.908;8.364;2023-06-04T13:46:59;29.50;22.00
66140;DHT22;52945;51.908;8.364;2023-06-04T13:50:01;29.70;21.90
66140;DHT22;52945;51.908;8.364;2023-06-04T13:53:02;29.50;20.70
66140;DHT22;52945;51.908;8.364;2023-06-04T13:56:03;29.30;21.30
66140;DHT22;52945;51.908;8.364;2023-06-04T13:59:04;29.40;21.60
66140;DHT22;52945;51.908;8.364;2023-06-04T14:02:04;29.20;22.20
66140;DHT22;52945;51.908;8.364;2023-06-04T14:05:06;29.20;22.30
66140;DHT22;52945;51.908;8.364;2023-06-04T14:08:07;29.20;23.00
66140;DHT22;52945;51.908;8.364;2023-06-04T14:11:07;29.30;23.00
66140;DHT22;52945;51.908;8.364;2023-06-04T14:14:08;29.40;22.60
66140;DHT22;52945;51.908;8.364;2023-06-04T14:17:10;29.20;22.50
66140;DHT22;52945;51.908;8.364;2023-06-04T14:20:11;29.20;22.70
66140;DHT22;52945;51.908;8.364;2023-06-04T14:23:11;29.30;22.70
66140;DHT22;52945;51.908;8.364;2023-06-04T14:26:13;29.20;22.20
66140;DHT22;52945;51.908;8.364;2023-06-04T14:29:13;29.20;22.50
66140;DHT22;52945;51.908;8.364;2023-06-04T14:32:14;28.80;21.90
66140;DHT22;52945;51.908;8.364;2023-06-04T14:35:15;28.80;22.70
66140;DHT22;52945;51.908;8.364;2023-06-04T14:38:16;28.90;23.00
66140;DHT22;52945;51.908;8.364;2023-06-04T14:41:17;29.00;22.70
66140;DHT22;52945;51.908;8.364;2023-06-04T14:44:18;29.10;22.20
66140;DHT22;52945;51.908;8.364;2023-06-04T14:47:20;29.00;22.00
66140;DHT22;52945;51.908;8.364;2023-06-04T14:50:20;28.70;22.60
66140;DHT22;52945;51.908;8.364;2023-06-04T14:53:23;28.70;23.10
66140;DHT22;52945;51.908;8.364;2023-06-04T14:56:23;28.70;22.90
66140;DHT22;52945;51.908;8.364;2023-06-04T14:59:24;28.50;23.00
66140;DHT22;52945;51.908;8.364;2023-06-04T15:02:25;28.50;23.20
66140;DHT22;52945;51.908;8.364;2023-06-04T15:05:25;28.70;23.50
66140;DHT22;52945;51.908;8.364;2023-06-04T15:08:26;28.60;22.70
66140;DHT22;52945;51.908;8.364;2023-06-04T15:11:26;28.70;22.80
66140;DHT22;52945;51.908;8.364;2023-06-04T15:14:29;28.70;22.70
66140;DHT22;52945;51.908;8.364;2023-06-04T15:17:30;28.70;22.40
66140;DHT22;52945;51.908;8.364;2023-06-04T15:20:30;28.80;22.40
66140;DHT22;52945;51.908;8.364;2023-06-04T15:23:31;28.80;21.50
66140;DHT22;52945;51.908;8.364;2023-06-04T15:26:31;28.90;22.30
66140;DHT22;52945;51.908;8.364;2023-06-04T15:29:32;28.90;22.10
66140;DHT22;52945;51.908;8.364;2023-06-04T15:32:32;28.90;21.90
66140;DHT22;52945;51.908;8.364;2023-06-04T15:35:34;28.70;21.80
66140;DHT22;52945;51.908;8.364;2023-06-04T15:38:34;28.80;22.30
66140;DHT22;52945;51.908;8.364;2023-06-04T15:41:35;28.80;21.80
66140;DHT22;52945;51.908;8.364;2023-06-04T15:44:35;28.70;22.00
66140;DHT22;52945;51.908;8.364;2023-06-04T15:47:36;28.70;22.30
66140;DHT22;52945;51.908;8.364;2023-06-04T15:50:37;28.80;22.30
66140;DHT22;52945;51.908;8.364;2023-06-04T15:53:37;29.00;21.70
66140;DHT22;52945;51.908;8.364;2023-06-04T15:56:38;29.20;21.70
66140;DHT22;52945;51.908;8.364;2023-06-04T15:59:38;29.20;20.80
66140;DHT22;52945;51.908;8.364;2023-06-04T16:02:40;29.30;21.00
66140;DHT22;52945;51.908;8.364;2023-06-04T16:05:41;29.50;21.50
66140;DHT22;52945;51.908;8.364;2023-06-04T16:08:41;29.60;21.20
66140;DHT22;52945;51.908;8.364;2023-06-04T16:11:43;29.70;21.50
66140;DHT22;52945;51.908;8.364;2023-06-04T16:14:44;29.70;21.20
66140;DHT22;52945;51.908;8.364;2023-06-04T16:17:45;29.70;21.50
66140;DHT22;52945;51.908;8.364;2023-06-04T16:20:48;29.80;21.60
66140;DHT22;52945;51.908;8.364;2023-06-04T16:23:48;29.80;21.10
66140;DHT22;52945;51.908;8.364;2023-06-04T16:26:49;29.90;21.20
66140;DHT22;52945;51.908;8.364;2023-06-04T16:29:49;30.00;20.70
66140;DHT22;52945;51.908;8.364;2023-06-04T16:32:50;29.70;20.60
66140;DHT22;52945;51.908;8.364;2023-06-04T16:35:51;29.60;21.30
66140;DHT22;52945;51.908;8.364;2023-06-04T16:38:51;29.70;21.50
66140;DHT22;52945;51.908;8.364;2023-06-04T16:41:52;29.80;21.40
66140;DHT22;52945;51.908;8.364;2023-06-04T16:44:55;29.80;21.40
66140;DHT22;52945;51.908;8.364;2023-06-04T16:47:56;29.70;21.10
66140;DHT22;52945;51.908;8.364;2023-06-04T16:50:57;29.60;21.10
66140;DHT22;52945;51.908;8.364;2023-06-04T16:53:57;29.50;21.60
66140;DHT22;52945;51.908;8.364;2023-06-04T16:56:58;29.40;21.70
66140;DHT22;52945;51.908;8.364;2023-06-04T16:59:58;29.20;21.10
66140;DHT22;52945;51.908;8.364;2023-06-04T17:03:00;29.00;21.10
66140;DHT22;52945;51.908;8.364;2023-06-04T17:06:02;28.80;21.30
66140;DHT22;52945;51.908;8.364;2023-06-04T17:09:02;28.70;21.60
66140;DHT22;52945;51.908;8.364;2023-06-04T17:12:03;28.50;21.40
66140;DHT22;52945;51.908;8.364;2023-06-04T17:15:06;28.50;22.10
66140;DHT22;52945;51.908;8.364;2023-06-04T17:18:07;28.30;21.80
66140;DHT22;52945;51.908;8.364;2023-06-04T17:21:11;28.20;21.60
66140;DHT22;52945;51.908;8.364;2023-06-04T17:24:12;28.20;22.00
66140;DHT22;52945;51.908;8.364;2023-06-04T17:27:12;28.10;22.40
66140;DHT22;52945;51.908;8.364;2023-06-04T17:30:13;28.10;22.60
66140;DHT22;52945;51.908;8.364;2023-06-04T17:33:15;27.90;22.80
66140;DHT22;52945;51.908;8.364;2023-06-04T17:36:16;27.80;22.80
66140;DHT22;52945;51.908;8.364;2023-06-04T17:39:17;27.80;23.00
66140;DHT22;52945;51.908;8.364;2023-06-04T17:42:17;27.60;23.20
66140;DHT22;52945;51.908;8.364;2023-06-04T17:45:19;27.50;23.40
66140;DHT22;52945;51.908;8.364;2023-06-04T17:48:19;27.40;23.40
66140;DHT22;52945;51.908;8.364;2023-06-04T17:51:20;27.30;23.60
66140;DHT22;52945;51.908;8.364;2023-06-04T17:54:21;27.30;23.60
66140;DHT22;52945;51.908;8.364;2023-06-04T17:57:21;27.10;23.80
66140;DHT22;52945;51.908;8.364;2023-06-04T18:00:23;27.00;24.00
66140;DHT22;52945;51.908;8.364;2023-06-04T18:03:25;27.00;23.90
66140;DHT22;52945;51.908;8.364;2023-06-04T18:06:26;26.90;24.10
66140;DHT22;52945;51.908;8.364;2023-06-04T18:09:26;26.80;24.40
66140;DHT22;52945;51.908;8.364;2023-06-04T18:12:27;26.80;24.50
66140;DHT22;52945;51.908;8.364;2023-06-04T18:15:27;26.70;24.60
66140;DHT22;52945;51.908;8.364;2023-06-04T18:18:29;26.70;24.60
66140;DHT22;52945;51.908;8.364;2023-06-04T18:21:29;26.70;24.80
66140;DHT22;52945;51.908;8.364;2023-06-04T18:24:30;26.60;24.70
66140;DHT22;52945;51.908;8.364;2023-06-04T18:27:30;26.60;24.90
66140;DHT22;52945;51.908;8.364;2023-06-04T18:30:31;26.50;25.20
66140;DHT22;52945;51.908;8.364;2023-06-04T18:33:31;26.60;25.40
66140;DHT22;52945;51.908;8.364;2023-06-04T18:36:32;26.40;25.30
66140;DHT22;52945;51.908;8.364;2023-06-04T18:39:33;26.30;25.50
66140;DHT22;52945;51.908;8.364;2023-06-04T18:42:33;26.30;25.50
66140;DHT22;52945;51.908;8.364;2023-06-04T18:45:34;26.20;25.70
66140;DHT22;52945;51.908;8.364;2023-06-04T18:48:35;26.20;25.90
66140;DHT22;52945;51.908;8.364;2023-06-04T18:51:35;26.20;26.00
66140;DHT22;52945;51.908;8.364;2023-06-04T18:54:36;26.10;26.00
66140;DHT22;52945;51.908;8.364;2023-06-04T18:57:37;26.00;26.30
66140;DHT22;52945;51.908;8.364;2023-06-04T19:00:37;26.00;26.40
66140;DHT22;52945;51.908;8.364;2023-06-04T19:03:38;26.00;26.60
66140;DHT22;52945;51.908;8.364;2023-06-04T19:06:40;25.90;26.90
66140;DHT22;52945;51.908;8.364;2023-06-04T19:09:41;25.80;27.50